sensor_id;sensor_type;location;lat;lon;timestamp;pressure;altitude;pressure_sealevel;temperature;humidity
43450;BME280;29041;42.266;23.110;2023-08-21T00:01:54;96007.69;;;24.36;56.47
43450;BME280;29041;42.266;23.110;2023-08-21T00:04:44;96019.22;;;24.13;57.12
43450;BME280;29041;42.266;23.110;2023-08-21T00:07:34;96015.91;;;23.84;58.33
43450;BME280;29041;42.266;23.110;2023-08-21T00:10:23;96019.41;;;23.88;58.84
43450;BME280;29041;42.266;23.110;2023-08-21T00:13:10;96013.94;;;23.84;58.24
43450;BME280;29041;42.266;23.110;2023-08-21T00:15:57;96033.75;;;24.10;57.59
43450;BME280;29041;42.266;23.110;2023-08-21T00:18:44;96019.88;;;23.79;58.53
43450;BME280;29041;42.266;23.110;2023-08-21T00:21:32;96023.47;;;23.65;59.04
43450;BME280;29041;42.266;23.110;2023-08-21T00:24:19;96021.34;;;23.95;57.79
43450;BME280;29041;42.266;23.110;2023-08-21T00:27:07;96021.88;;;23.75;58.86
43450;BME280;29041;42.266;23.110;2023-08-21T00:29:55;96020.31;;;23.70;59.24
43450;BME280;29041;42.266;23.110;2023-08-21T00:32:42;96014.88;;;23.67;59.43
43450;BME280;29041;42.266;23.110;2023-08-21T00:35:29;96015.38;;;24.07;57.88
43450;BME280;29041;42.266;23.110;2023-08-21T00:38:16;96010.19;;;24.16;57.88
43450;BME280;29041;42.266;23.110;2023-08-21T00:41:04;96011.97;;;23.88;58.13
43450;BME280;29041;42.266;23.110;2023-08-21T00:43:52;96023.59;;;24.07;58.25
43450;BME280;29041;42.266;23.110;2023-08-21T00:46:39;96014.22;;;24.04;58.01
43450;BME280;29041;42.266;23.110;2023-08-21T00:49:27;96012.66;;;24.03;57.78
43450;BME280;29041;42.266;23.110;2023-08-21T00:52:14;96017.16;;;23.72;59.18
43450;BME280;29041;42.266;23.110;2023-08-21T00:55:03;96021.44;;;23.76;59.37
43450;BME280;29041;42.266;23.110;2023-08-21T00:57:50;96023.31;;;23.87;59.11
43450;BME280;29041;42.266;23.110;2023-08-21T01:00:39;96026.09;;;24.36;57.39
43450;BME280;29041;42.266;23.110;2023-08-21T01:03:27;96017.06;;;23.86;58.70
43450;BME280;29041;42.266;23.110;2023-08-21T01:06:15;96013.41;;;23.51;59.74
43450;BME280;29041;42.266;23.110;2023-08-21T01:09:04;96009.00;;;23.65;59.67
43450;BME280;29041;42.266;23.110;2023-08-21T01:12:00;96021.63;;;24.11;58.65
43450;BME280;29041;42.266;23.110;2023-08-21T01:14:59;96021.75;;;23.89;59.08
43450;BME280;29041;42.266;23.110;2023-08-21T01:17:49;96025.19;;;24.04;58.60
43450;BME280;29041;42.266;23.110;2023-08-21T01:20:37;96007.38;;;23.71;59.73
43450;BME280;29041;42.266;23.110;2023-08-21T01:23:33;96032.13;;;23.60;59.69
43450;BME280;29041;42.266;23.110;2023-08-21T01:26:20;96024.06;;;23.31;60.90
43450;BME280;29041;42.266;23.110;2023-08-21T01:29:07;96019.31;;;23.39;61.27
43450;BME280;29041;42.266;23.110;2023-08-21T01:32:00;96032.16;;;23.56;60.33
43450;BME280;29041;42.266;23.110;2023-08-21T01:34:50;96025.16;;;23.48;60.86
43450;BME280;29041;42.266;23.110;2023-08-21T01:37:38;96028.75;;;23.38;61.07
43450;BME280;29041;42.266;23.110;2023-08-21T01:40:26;96029.00;;;23.58;60.27
43450;BME280;29041;42.266;23.110;2023-08-21T01:43:14;96038.25;;;23.82;59.77
43450;BME280;29041;42.266;23.110;2023-08-21T01:46:06;96039.13;;;23.65;60.71
43450;BME280;29041;42.266;23.110;2023-08-21T01:48:53;96043.50;;;23.55;60.34
43450;BME280;29041;42.266;23.110;2023-08-21T01:51:40;96034.03;;;22.81;63.51
43450;BME280;29041;42.266;23.110;2023-08-21T01:54:27;96037.81;;;23.20;63.02
43450;BME280;29041;42.266;23.110;2023-08-21T01:57:16;96048.09;;;22.76;64.62
43450;BME280;29041;42.266;23.110;2023-08-21T02:00:04;96053.59;;;22.55;65.86
43450;BME280;29041;42.266;23.110;2023-08-21T02:02:52;96053.59;;;22.62;66.04
43450;BME280;29041;42.266;23.110;2023-08-21T02:05:40;96050.47;;;22.53;66.06
43450;BME280;29041;42.266;23.110;2023-08-21T02:08:31;96050.50;;;22.42;66.97
43450;BME280;29041;42.266;23.110;2023-08-21T02:11:18;96051.25;;;22.64;65.84
43450;BME280;29041;42.266;23.110;2023-08-21T02:14:07;96044.53;;;22.90;64.38
43450;BME280;29041;42.266;23.110;2023-08-21T02:16:54;96049.47;;;23.32;63.17
43450;BME280;29041;42.266;23.110;2023-08-21T02:19:41;96054.75;;;22.64;66.12
43450;BME280;29041;42.266;23.110;2023-08-21T02:22:28;96063.78;;;22.40;66.88
43450;BME280;29041;42.266;23.110;2023-08-21T02:25:15;96054.38;;;21.90;69.66
43450;BME280;29041;42.266;23.110;2023-08-21T02:28:03;96043.84;;;22.03;69.33
43450;BME280;29041;42.266;23.110;2023-08-21T02:30:51;96054.00;;;22.35;67.54
43450;BME280;29041;42.266;23.110;2023-08-21T02:33:39;96046.59;;;22.46;68.12
43450;BME280;29041;42.266;23.110;2023-08-21T02:36:26;96047.72;;;21.87;70.16
43450;BME280;29041;42.266;23.110;2023-08-21T02:39:13;96044.63;;;22.00;70.26
43450;BME280;29041;42.266;23.110;2023-08-21T02:42:00;96042.63;;;21.57;71.40
43450;BME280;29041;42.266;23.110;2023-08-21T02:44:47;96044.97;;;21.66;71.44
43450;BME280;29041;42.266;23.110;2023-08-21T02:47:36;96043.81;;;21.63;71.03
43450;BME280;29041;42.266;23.110;2023-08-21T02:50:24;96037.16;;;21.57;71.28
43450;BME280;29041;42.266;23.110;2023-08-21T02:53:11;96036.41;;;21.82;71.07
43450;BME280;29041;42.266;23.110;2023-08-21T02:55:58;96038.75;;;21.80;71.07
43450;BME280;29041;42.266;23.110;2023-08-21T02:58:45;96037.97;;;22.05;70.39
43450;BME280;29041;42.266;23.110;2023-08-21T03:01:32;96039.81;;;21.43;72.57
43450;BME280;29041;42.266;23.110;2023-08-21T03:04:22;96038.75;;;21.76;71.29
43450;BME280;29041;42.266;23.110;2023-08-21T03:07:09;96047.69;;;21.59;71.74
43450;BME280;29041;42.266;23.110;2023-08-21T03:09:56;96048.13;;;22.08;69.80
43450;BME280;29041;42.266;23.110;2023-08-21T03:12:43;96046.16;;;21.83;70.22
43450;BME280;29041;42.266;23.110;2023-08-21T03:15:30;96053.19;;;21.91;70.03
43450;BME280;29041;42.266;23.110;2023-08-21T03:18:18;96044.59;;;21.78;70.40
43450;BME280;29041;42.266;23.110;2023-08-21T03:21:06;96045.41;;;21.86;70.56
43450;BME280;29041;42.266;23.110;2023-08-21T03:23:55;96056.13;;;21.17;74.85
43450;BME280;29041;42.266;23.110;2023-08-21T03:26:43;96046.06;;;21.50;73.06
43450;BME280;29041;42.266;23.110;2023-08-21T03:29:30;96041.72;;;21.24;74.30
43450;BME280;29041;42.266;23.110;2023-08-21T03:32:17;96043.22;;;21.11;75.53
43450;BME280;29041;42.266;23.110;2023-08-21T03:35:05;96060.63;;;20.81;76.98
43450;BME280;29041;42.266;23.110;2023-08-21T03:37:53;96054.13;;;21.03;76.21
43450;BME280;29041;42.266;23.110;2023-08-21T03:40:41;96056.97;;;21.39;75.37
43450;BME280;29041;42.266;23.110;2023-08-21T03:43:28;96057.41;;;20.71;78.00
43450;BME280;29041;42.266;23.110;2023-08-21T03:46:15;96070.22;;;20.60;79.12
43450;BME280;29041;42.266;23.110;2023-08-21T03:49:02;96070.41;;;20.85;78.77
43450;BME280;29041;42.266;23.110;2023-08-21T03:51:49;96080.53;;;20.85;77.37
43450;BME280;29041;42.266;23.110;2023-08-21T03:54:38;96076.28;;;20.91;77.56
43450;BME280;29041;42.266;23.110;2023-08-21T03:57:25;96080.13;;;20.79;77.99
43450;BME280;29041;42.266;23.110;2023-08-21T04:00:13;96087.44;;;20.71;77.58
43450;BME280;29041;42.266;23.110;2023-08-21T04:03:00;96091.94;;;20.45;79.09
43450;BME280;29041;42.266;23.110;2023-08-21T04:05:48;96085.56;;;20.79;77.81
43450;BME280;29041;42.266;23.110;2023-08-21T04:08:35;96096.53;;;20.90;78.14
43450;BME280;29041;42.266;23.110;2023-08-21T04:11:23;96091.09;;;20.90;78.20
43450;BME280;29041;42.266;23.110;2023-08-21T04:14:11;96095.38;;;20.91;77.31
43450;BME280;29041;42.266;23.110;2023-08-21T04:16:58;96100.28;;;20.67;78.92
43450;BME280;29041;42.266;23.110;2023-08-21T04:19:45;96096.03;;;21.51;75.62
43450;BME280;29041;42.266;23.110;2023-08-21T04:22:32;96100.56;;;21.18;77.65
43450;BME280;29041;42.266;23.110;2023-08-21T04:25:19;96092.19;;;20.78;79.71
43450;BME280;29041;42.266;23.110;2023-08-21T04:28:08;96090.53;;;20.66;80.78
43450;BME280;29041;42.266;23.110;2023-08-21T04:30:55;96104.59;;;20.72;80.16
43450;BME280;29041;42.266;23.110;2023-08-21T04:33:43;96076.09;;;20.66;80.17
43450;BME280;29041;42.266;23.110;2023-08-21T04:36:30;96102.50;;;21.10;77.80
43450;BME280;29041;42.266;23.110;2023-08-21T04:39:18;96105.28;;;21.21;77.60
43450;BME280;29041;42.266;23.110;2023-08-21T04:42:05;96092.56;;;21.61;74.60
43450;BME280;29041;42.266;23.110;2023-08-21T04:44:53;96100.44;;;21.81;73.80
43450;BME280;29041;42.266;23.110;2023-08-21T04:47:40;96099.31;;;22.18;71.22
43450;BME280;29041;42.266;23.110;2023-08-21T04:50:27;96100.06;;;22.80;68.00
43450;BME280;29041;42.266;23.110;2023-08-21T04:53:14;96105.94;;;22.10;71.67
43450;BME280;29041;42.266;23.110;2023-08-21T04:56:01;96107.09;;;21.91;73.74
43450;BME280;29041;42.266;23.110;2023-08-21T04:58:49;96113.75;;;22.15;73.56
43450;BME280;29041;42.266;23.110;2023-08-21T05:01:37;96114.19;;;22.53;69.88
43450;BME280;29041;42.266;23.110;2023-08-21T05:04:24;96109.88;;;22.23;71.13
43450;BME280;29041;42.266;23.110;2023-08-21T05:07:12;96116.16;;;22.71;69.45
43450;BME280;29041;42.266;23.110;2023-08-21T05:09:59;96115.34;;;22.52;69.57
43450;BME280;29041;42.266;23.110;2023-08-21T05:12:50;96112.19;;;22.10;70.98
43450;BME280;29041;42.266;23.110;2023-08-21T05:15:37;96117.34;;;22.44;70.72
43450;BME280;29041;42.266;23.110;2023-08-21T05:18:26;96107.94;;;22.71;69.90
43450;BME280;29041;42.266;23.110;2023-08-21T05:21:20;96116.50;;;22.80;68.93
43450;BME280;29041;42.266;23.110;2023-08-21T05:24:07;96117.56;;;23.37;67.53
43450;BME280;29041;42.266;23.110;2023-08-21T05:26:54;96105.47;;;23.12;67.83
43450;BME280;29041;42.266;23.110;2023-08-21T05:29:41;96107.03;;;23.24;66.45
43450;BME280;29041;42.266;23.110;2023-08-21T05:32:28;96120.75;;;23.17;67.55
43450;BME280;29041;42.266;23.110;2023-08-21T05:35:19;96115.16;;;23.50;65.85
43450;BME280;29041;42.266;23.110;2023-08-21T05:38:07;96119.56;;;23.11;67.39
43450;BME280;29041;42.266;23.110;2023-08-21T05:40:54;96108.59;;;23.29;67.74
43450;BME280;29041;42.266;23.110;2023-08-21T05:43:41;96116.44;;;23.12;68.62
43450;BME280;29041;42.266;23.110;2023-08-21T05:46:28;96125.63;;;23.73;66.06
43450;BME280;29041;42.266;23.110;2023-08-21T05:49:15;96121.22;;;23.90;65.58
43450;BME280;29041;42.266;23.110;2023-08-21T05:52:04;96114.75;;;24.26;64.71
43450;BME280;29041;42.266;23.110;2023-08-21T05:54:51;96120.59;;;24.28;63.31
43450;BME280;29041;42.266;23.110;2023-08-21T05:57:38;96118.06;;;24.51;62.31
43450;BME280;29041;42.266;23.110;2023-08-21T06:00:25;96105.97;;;24.45;61.84
43450;BME280;29041;42.266;23.110;2023-08-21T06:03:13;96117.09;;;24.76;61.62
43450;BME280;29041;42.266;23.110;2023-08-21T06:06:09;96109.31;;;24.71;61.63
43450;BME280;29041;42.266;23.110;2023-08-21T06:08:57;96098.25;;;25.16;60.86
43450;BME280;29041;42.266;23.110;2023-08-21T06:11:44;96110.91;;;25.07;60.69
43450;BME280;29041;42.266;23.110;2023-08-21T06:14:32;96108.22;;;25.38;61.04
43450;BME280;29041;42.266;23.110;2023-08-21T06:17:22;96108.25;;;25.69;58.65
43450;BME280;29041;42.266;23.110;2023-08-21T06:20:09;96108.75;;;26.18;57.41
43450;BME280;29041;42.266;23.110;2023-08-21T06:22:57;96112.63;;;25.93;57.96
43450;BME280;29041;42.266;23.110;2023-08-21T06:25:47;96111.28;;;26.05;58.15
43450;BME280;29041;42.266;23.110;2023-08-21T06:28:34;96106.81;;;25.88;58.09
43450;BME280;29041;42.266;23.110;2023-08-21T06:31:21;96106.78;;;26.66;55.60
43450;BME280;29041;42.266;23.110;2023-08-21T06:34:08;96070.19;;;26.45;55.34
43450;BME280;29041;42.266;23.110;2023-08-21T06:36:56;96100.22;;;26.84;55.19
43450;BME280;29041;42.266;23.110;2023-08-21T06:39:43;96111.31;;;26.80;56.08
43450;BME280;29041;42.266;23.110;2023-08-21T06:42:31;96100.69;;;27.02;55.42
43450;BME280;29041;42.266;23.110;2023-08-21T06:45:18;96097.81;;;27.50;53.65
43450;BME280;29041;42.266;23.110;2023-08-21T06:48:06;96104.66;;;27.42;53.26
43450;BME280;29041;42.266;23.110;2023-08-21T06:50:53;96096.88;;;27.77;52.31
43450;BME280;29041;42.266;23.110;2023-08-21T06:53:40;96091.16;;;28.21;50.50
43450;BME280;29041;42.266;23.110;2023-08-21T06:56:27;96102.22;;;28.00;50.58
43450;BME280;29041;42.266;23.110;2023-08-21T06:59:15;96093.31;;;28.13;49.60
43450;BME280;29041;42.266;23.110;2023-08-21T07:02:03;96093.75;;;28.28;49.16
43450;BME280;29041;42.266;23.110;2023-08-21T07:04:50;96095.78;;;28.90;47.79
43450;BME280;29041;42.266;23.110;2023-08-21T07:07:37;96087.56;;;28.24;47.93
43450;BME280;29041;42.266;23.110;2023-08-21T07:10:24;96088.31;;;28.74;46.77
43450;BME280;29041;42.266;23.110;2023-08-21T07:13:11;96086.03;;;28.85;46.22
43450;BME280;29041;42.266;23.110;2023-08-21T07:16:00;96089.19;;;29.59;45.00
43450;BME280;29041;42.266;23.110;2023-08-21T07:18:48;96083.44;;;30.57;42.15
43450;BME280;29041;42.266;23.110;2023-08-21T07:21:35;96084.28;;;31.90;38.98
43450;BME280;29041;42.266;23.110;2023-08-21T07:24:24;96072.88;;;35.48;32.75
43450;BME280;29041;42.266;23.110;2023-08-21T07:27:11;96073.88;;;35.95;30.47
43450;BME280;29041;42.266;23.110;2023-08-21T07:29:58;96055.22;;;37.25;28.49
43450;BME280;29041;42.266;23.110;2023-08-21T07:32:46;96060.63;;;39.91;24.94
43450;BME280;29041;42.266;23.110;2023-08-21T07:35:33;96067.50;;;37.07;28.37
43450;BME280;29041;42.266;23.110;2023-08-21T07:38:21;96071.88;;;39.69;25.21
43450;BME280;29041;42.266;23.110;2023-08-21T07:41:10;96058.97;;;37.43;27.83
43450;BME280;29041;42.266;23.110;2023-08-21T07:43:57;96064.16;;;38.63;25.89
43450;BME280;29041;42.266;23.110;2023-08-21T07:46:44;96059.44;;;37.15;28.26
43450;BME280;29041;42.266;23.110;2023-08-21T07:49:33;96058.06;;;37.31;27.64
43450;BME280;29041;42.266;23.110;2023-08-21T07:52:20;96053.69;;;35.55;30.95
43450;BME280;29041;42.266;23.110;2023-08-21T07:55:08;96049.63;;;39.76;25.00
43450;BME280;29041;42.266;23.110;2023-08-21T07:57:55;96048.59;;;41.37;23.01
43450;BME280;29041;42.266;23.110;2023-08-21T08:00:44;96043.38;;;38.32;26.63
43450;BME280;29041;42.266;23.110;2023-08-21T08:03:31;96045.81;;;38.68;25.00
43450;BME280;29041;42.266;23.110;2023-08-21T08:06:19;96044.28;;;38.67;25.74
43450;BME280;29041;42.266;23.110;2023-08-21T08:09:07;96040.03;;;40.53;23.22
43450;BME280;29041;42.266;23.110;2023-08-21T08:11:54;96026.88;;;39.57;23.72
43450;BME280;29041;42.266;23.110;2023-08-21T08:14:46;96031.75;;;39.85;23.46
43450;BME280;29041;42.266;23.110;2023-08-21T08:17:33;96023.28;;;41.31;22.69
43450;BME280;29041;42.266;23.110;2023-08-21T08:20:20;96029.69;;;39.34;24.15
43450;BME280;29041;42.266;23.110;2023-08-21T08:23:09;96033.66;;;38.88;24.27
43450;BME280;29041;42.266;23.110;2023-08-21T08:25:56;96014.94;;;37.75;25.78
43450;BME280;29041;42.266;23.110;2023-08-21T08:28:43;96012.56;;;40.01;24.40
43450;BME280;29041;42.266;23.110;2023-08-21T08:31:30;96015.13;;;39.93;24.11
43450;BME280;29041;42.266;23.110;2023-08-21T08:34:17;96010.78;;;39.41;24.65
43450;BME280;29041;42.266;23.110;2023-08-21T08:37:06;96008.69;;;40.32;23.82
43450;BME280;29041;42.266;23.110;2023-08-21T08:39:54;96000.81;;;39.62;23.96
43450;BME280;29041;42.266;23.110;2023-08-21T08:42:41;96001.06;;;37.02;26.97
43450;BME280;29041;42.266;23.110;2023-08-21T08:45:34;95992.63;;;38.91;25.24
43450;BME280;29041;42.266;23.110;2023-08-21T08:48:24;96000.34;;;39.35;24.64
43450;BME280;29041;42.266;23.110;2023-08-21T08:51:12;95995.72;;;39.55;24.61
43450;BME280;29041;42.266;23.110;2023-08-21T08:54:00;95985.19;;;40.07;23.89
43450;BME280;29041;42.266;23.110;2023-08-21T08:56:48;95995.44;;;40.80;22.76
43450;BME280;29041;42.266;23.110;2023-08-21T08:59:35;95988.75;;;41.25;22.28
43450;BME280;29041;42.266;23.110;2023-08-21T09:02:24;95992.13;;;41.54;21.83
43450;BME280;29041;42.266;23.110;2023-08-21T09:05:12;95991.28;;;41.29;21.71
43450;BME280;29041;42.266;23.110;2023-08-21T09:08:03;95994.16;;;40.00;19.33
43450;BME280;29041;42.266;23.110;2023-08-21T09:10:51;95992.66;;;39.87;19.69
43450;BME280;29041;42.266;23.110;2023-08-21T09:13:40;95993.88;;;40.09;19.57
43450;BME280;29041;42.266;23.110;2023-08-21T09:16:28;95995.47;;;39.13;19.65
43450;BME280;29041;42.266;23.110;2023-08-21T09:19:21;95986.44;;;38.81;20.20
43450;BME280;29041;42.266;23.110;2023-08-21T09:22:09;95985.38;;;38.72;20.44
43450;BME280;29041;42.266;23.110;2023-08-21T09:25:01;95979.28;;;38.14;20.93
43450;BME280;29041;42.266;23.110;2023-08-21T09:27:52;95960.84;;;38.50;21.38
43450;BME280;29041;42.266;23.110;2023-08-21T09:30:48;95958.72;;;39.40;19.67
43450;BME280;29041;42.266;23.110;2023-08-21T09:33:36;95966.88;;;39.43;19.19
43450;BME280;29041;42.266;23.110;2023-08-21T09:36:24;95975.78;;;38.96;21.66
43450;BME280;29041;42.266;23.110;2023-08-21T09:39:15;95950.66;;;37.92;21.51
43450;BME280;29041;42.266;23.110;2023-08-21T09:42:05;95948.78;;;38.27;21.34
43450;BME280;29041;42.266;23.110;2023-08-21T09:44:53;95955.59;;;36.87;23.34
43450;BME280;29041;42.266;23.110;2023-08-21T09:47:42;95956.50;;;35.39;23.41
43450;BME280;29041;42.266;23.110;2023-08-21T09:50:31;95953.53;;;35.78;23.30
43450;BME280;29041;42.266;23.110;2023-08-21T09:53:20;95953.88;;;36.21;22.37
43450;BME280;29041;42.266;23.110;2023-08-21T09:56:08;95950.25;;;34.99;23.67
43450;BME280;29041;42.266;23.110;2023-08-21T09:58:55;95946.47;;;35.47;23.45
43450;BME280;29041;42.266;23.110;2023-08-21T10:01:43;95956.81;;;36.54;21.72
43450;BME280;29041;42.266;23.110;2023-08-21T10:04:35;95948.97;;;35.45;22.78
43450;BME280;29041;42.266;23.110;2023-08-21T10:07:27;95947.25;;;35.33;23.58
43450;BME280;29041;42.266;23.110;2023-08-21T10:10:15;95937.88;;;35.66;22.95
43450;BME280;29041;42.266;23.110;2023-08-21T10:13:03;95937.81;;;35.30;23.65
43450;BME280;29041;42.266;23.110;2023-08-21T10:15:51;95930.56;;;35.89;23.31
43450;BME280;29041;42.266;23.110;2023-08-21T10:18:43;95923.59;;;36.61;21.62
43450;BME280;29041;42.266;23.110;2023-08-21T10:21:34;95924.06;;;35.77;22.82
43450;BME280;29041;42.266;23.110;2023-08-21T10:24:28;95919.22;;;36.13;22.23
43450;BME280;29041;42.266;23.110;2023-08-21T10:27:29;95934.72;;;36.35;22.50
43450;BME280;29041;42.266;23.110;2023-08-21T10:30:20;95926.22;;;36.03;22.65
43450;BME280;29041;42.266;23.110;2023-08-21T10:33:08;95910.97;;;36.25;21.78
43450;BME280;29041;42.266;23.110;2023-08-21T10:35:55;95910.06;;;36.33;21.78
43450;BME280;29041;42.266;23.110;2023-08-21T10:39:01;95921.72;;;36.32;21.88
43450;BME280;29041;42.266;23.110;2023-08-21T10:41:53;95927.13;;;35.58;22.28
43450;BME280;29041;42.266;23.110;2023-08-21T10:44:52;95913.59;;;35.72;22.70
43450;BME280;29041;42.266;23.110;2023-08-21T10:47:41;95913.34;;;35.91;22.80
43450;BME280;29041;42.266;23.110;2023-08-21T10:50:30;95912.88;;;35.92;22.84
43450;BME280;29041;42.266;23.110;2023-08-21T10:53:18;95904.81;;;35.79;23.53
43450;BME280;29041;42.266;23.110;2023-08-21T10:56:07;95916.16;;;35.55;23.66
43450;BME280;29041;42.266;23.110;2023-08-21T10:58:54;95904.53;;;35.41;23.47
43450;BME280;29041;42.266;23.110;2023-08-21T11:01:44;95904.78;;;36.15;23.04
43450;BME280;29041;42.266;23.110;2023-08-21T11:04:39;95914.72;;;35.80;22.94
43450;BME280;29041;42.266;23.110;2023-08-21T11:07:26;95893.59;;;35.94;23.49
43450;BME280;29041;42.266;23.110;2023-08-21T11:10:15;95909.78;;;36.11;22.60
43450;BME280;29041;42.266;23.110;2023-08-21T11:13:06;95901.41;;;36.11;22.29
43450;BME280;29041;42.266;23.110;2023-08-21T11:16:01;95899.66;;;35.93;22.65
43450;BME280;29041;42.266;23.110;2023-08-21T11:18:48;95911.88;;;35.95;22.64
43450;BME280;29041;42.266;23.110;2023-08-21T11:21:35;95900.56;;;36.04;22.74
43450;BME280;29041;42.266;23.110;2023-08-21T11:24:23;95908.94;;;36.25;22.01
43450;BME280;29041;42.266;23.110;2023-08-21T11:27:12;95887.50;;;36.16;22.96
43450;BME280;29041;42.266;23.110;2023-08-21T11:30:01;95887.13;;;35.88;22.49
43450;BME280;29041;42.266;23.110;2023-08-21T11:32:49;95891.34;;;35.42;22.96
43450;BME280;29041;42.266;23.110;2023-08-21T11:35:36;95878.78;;;35.52;22.93
43450;BME280;29041;42.266;23.110;2023-08-21T11:38:26;95873.00;;;35.92;22.89
43450;BME280;29041;42.266;23.110;2023-08-21T11:41:13;95868.91;;;35.72;23.50
43450;BME280;29041;42.266;23.110;2023-08-21T11:44:01;95863.06;;;35.91;23.13
43450;BME280;29041;42.266;23.110;2023-08-21T11:46:52;95868.13;;;35.71;23.17
43450;BME280;29041;42.266;23.110;2023-08-21T11:49:40;95868.56;;;35.64;22.42
43450;BME280;29041;42.266;23.110;2023-08-21T11:52:30;95858.63;;;35.42;22.80
43450;BME280;29041;42.266;23.110;2023-08-21T11:55:18;95855.75;;;36.14;22.97
43450;BME280;29041;42.266;23.110;2023-08-21T11:58:05;95859.13;;;35.62;22.75
43450;BME280;29041;42.266;23.110;2023-08-21T12:00:52;95855.59;;;35.82;22.57
43450;BME280;29041;42.266;23.110;2023-08-21T12:03:40;95843.44;;;35.85;22.57
43450;BME280;29041;42.266;23.110;2023-08-21T12:06:28;95838.47;;;36.15;22.21
43450;BME280;29041;42.266;23.110;2023-08-21T12:09:18;95837.94;;;36.64;21.59
43450;BME280;29041;42.266;23.110;2023-08-21T12:12:06;95841.16;;;36.30;21.26
43450;BME280;29041;42.266;23.110;2023-08-21T12:14:53;95836.03;;;36.02;22.13
43450;BME280;29041;42.266;23.110;2023-08-21T12:17:41;95839.78;;;35.79;22.71
43450;BME280;29041;42.266;23.110;2023-08-21T12:20:29;95841.28;;;35.74;23.16
43450;BME280;29041;42.266;23.110;2023-08-21T12:23:16;95844.94;;;36.01;22.80
43450;BME280;29041;42.266;23.110;2023-08-21T12:26:03;95832.19;;;35.79;22.79
43450;BME280;29041;42.266;23.110;2023-08-21T12:28:50;95826.97;;;35.66;22.93
43450;BME280;29041;42.266;23.110;2023-08-21T12:31:38;95822.50;;;35.95;23.08
43450;BME280;29041;42.266;23.110;2023-08-21T12:34:25;95830.44;;;36.49;22.65
43450;BME280;29041;42.266;23.110;2023-08-21T12:37:14;95838.28;;;35.78;22.88
43450;BME280;29041;42.266;23.110;2023-08-21T12:40:01;95830.16;;;35.59;23.04
43450;BME280;29041;42.266;23.110;2023-08-21T12:42:48;95817.47;;;35.79;22.76
43450;BME280;29041;42.266;23.110;2023-08-21T12:45:36;95823.84;;;35.58;22.73
43450;BME280;29041;42.266;23.110;2023-08-21T12:48:23;95831.88;;;35.92;22.39
43450;BME280;29041;42.266;23.110;2023-08-21T12:51:10;95822.72;;;35.71;23.72
43450;BME280;29041;42.266;23.110;2023-08-21T12:53:59;95815.97;;;35.06;24.69
43450;BME280;29041;42.266;23.110;2023-08-21T12:56:46;95833.00;;;34.93;25.40
43450;BME280;29041;42.266;23.110;2023-08-21T12:59:33;95824.06;;;34.44;25.63
43450;BME280;29041;42.266;23.110;2023-08-21T13:02:20;95821.56;;;34.31;25.57
43450;BME280;29041;42.266;23.110;2023-08-21T13:05:08;95817.88;;;34.10;26.09
43450;BME280;29041;42.266;23.110;2023-08-21T13:07:56;95812.63;;;34.57;25.68
43450;BME280;29041;42.266;23.110;2023-08-21T13:10:44;95821.22;;;34.39;26.01
43450;BME280;29041;42.266;23.110;2023-08-21T13:13:31;95799.75;;;34.75;25.28
43450;BME280;29041;42.266;23.110;2023-08-21T13:16:19;95801.06;;;35.09;24.62
43450;BME280;29041;42.266;23.110;2023-08-21T13:19:07;95803.56;;;35.07;24.51
43450;BME280;29041;42.266;23.110;2023-08-21T13:21:54;95808.31;;;35.01;24.79
43450;BME280;29041;42.266;23.110;2023-08-21T13:24:41;95808.50;;;34.98;24.96
43450;BME280;29041;42.266;23.110;2023-08-21T13:27:29;95818.50;;;34.74;24.59
43450;BME280;29041;42.266;23.110;2023-08-21T13:30:17;95817.81;;;34.64;24.82
43450;BME280;29041;42.266;23.110;2023-08-21T13:33:04;95808.19;;;34.36;24.52
43450;BME280;29041;42.266;23.110;2023-08-21T13:35:52;95802.94;;;34.38;24.19
43450;BME280;29041;42.266;23.110;2023-08-21T13:38:39;95810.94;;;34.06;24.40
43450;BME280;29041;42.266;23.110;2023-08-21T13:41:26;95815.72;;;33.90;24.90
43450;BME280;29041;42.266;23.110;2023-08-21T13:44:15;95808.66;;;33.80;24.88
43450;BME280;29041;42.266;23.110;2023-08-21T13:47:02;95800.94;;;33.75;25.26
43450;BME280;29041;42.266;23.110;2023-08-21T13:49:49;95812.56;;;33.73;25.57
43450;BME280;29041;42.266;23.110;2023-08-21T13:52:36;95817.13;;;33.61;25.97
43450;BME280;29041;42.266;23.110;2023-08-21T13:55:30;95809.59;;;33.77;26.30
43450;BME280;29041;42.266;23.110;2023-08-21T13:58:17;95823.31;;;33.65;26.40
43450;BME280;29041;42.266;23.110;2023-08-21T14:01:06;95812.06;;;33.84;26.36
43450;BME280;29041;42.266;23.110;2023-08-21T14:03:53;95805.63;;;33.93;26.39
43450;BME280;29041;42.266;23.110;2023-08-21T14:06:40;95815.06;;;33.95;25.59
43450;BME280;29041;42.266;23.110;2023-08-21T14:09:27;95801.16;;;33.95;24.59
43450;BME280;29041;42.266;23.110;2023-08-21T14:12:15;95816.19;;;33.64;26.12
43450;BME280;29041;42.266;23.110;2023-08-21T14:15:02;95806.91;;;33.92;26.15
43450;BME280;29041;42.266;23.110;2023-08-21T14:17:51;95806.69;;;33.71;26.56
43450;BME280;29041;42.266;23.110;2023-08-21T14:20:38;95808.59;;;33.89;26.28
43450;BME280;29041;42.266;23.110;2023-08-21T14:23:25;95802.75;;;33.87;26.80
43450;BME280;29041;42.266;23.110;2023-08-21T14:26:12;95814.03;;;34.08;26.68
43450;BME280;29041;42.266;23.110;2023-08-21T14:28:59;95803.66;;;34.08;26.30
43450;BME280;29041;42.266;23.110;2023-08-21T14:31:47;95809.09;;;33.63;27.08
43450;BME280;29041;42.266;23.110;2023-08-21T14:34:35;95799.03;;;33.66;27.71
43450;BME280;29041;42.266;23.110;2023-08-21T14:37:22;95811.69;;;33.67;27.83
43450;BME280;29041;42.266;23.110;2023-08-21T14:40:10;95804.72;;;33.72;28.21